sensor_id;sensor_type;location;lat;lon;timestamp;P1;durP1;ratioP1;P2;durP2;ratioP2
11328;SDS011;5719;42.714;23.732;2023-07-02T00:02:14;6.60;;;4.30;;
11328;SDS011;5719;42.714;23.732;2023-07-02T00:04:42;9.77;;;4.55;;
11328;SDS011;5719;42.714;23.732;2023-07-02T00:07:09;10.60;;;4.88;;
11328;SDS011;5719;42.714;23.732;2023-07-02T00:09:36;6.13;;;4.70;;
11328;SDS011;5719;42.714;23.732;2023-07-02T00:12:03;9.07;;;5.00;;
11328;SDS011;5719;42.714;23.732;2023-07-02T00:14:30;6.88;;;4.60;;
11328;SDS011;5719;42.714;23.732;2023-07-02T00:16:57;7.22;;;4.90;;
11328;SDS011;5719;42.714;23.732;2023-07-02T00:19:25;8.25;;;4.57;;
11328;SDS011;5719;42.714;23.732;2023-07-02T00:21:52;6.40;;;4.82;;
11328;SDS011;5719;42.714;23.732;2023-07-02T00:24:20;5.75;;;4.25;;
11328;SDS011;5719;42.714;23.732;2023-07-02T00:26:47;8.85;;;4.95;;
11328;SDS011;5719;42.714;23.732;2023-07-02T00:29:14;8.95;;;4.55;;
11328;SDS011;5719;42.714;23.732;2023-07-02T00:31:41;7.05;;;4.60;;
11328;SDS011;5719;42.714;23.732;2023-07-02T00:34:07;10.02;;;4.88;;
11328;SDS011;5719;42.714;23.732;2023-07-02T00:36:36;5.20;;;4.13;;
11328;SDS011;5719;42.714;23.732;2023-07-02T00:39:03;9.20;;;4.53;;
11328;SDS011;5719;42.714;23.732;2023-07-02T00:41:30;10.18;;;5.03;;
11328;SDS011;5719;42.714;23.732;2023-07-02T00:43:57;12.02;;;5.13;;
11328;SDS011;5719;42.714;23.732;2023-07-02T00:46:24;8.07;;;4.72;;
11328;SDS011;5719;42.714;23.732;2023-07-02T00:48:52;5.20;;;4.35;;
11328;SDS011;5719;42.714;23.732;2023-07-02T00:51:20;7.90;;;4.55;;
11328;SDS011;5719;42.714;23.732;2023-07-02T00:53:50;7.50;;;4.75;;
11328;SDS011;5719;42.714;23.732;2023-07-02T00:56:18;6.10;;;4.18;;
11328;SDS011;5719;42.714;23.732;2023-07-02T00:58:45;10.60;;;5.00;;
11328;SDS011;5719;42.714;23.732;2023-07-02T01:01:14;9.57;;;4.40;;
11328;SDS011;5719;42.714;23.732;2023-07-02T01:03:49;6.03;;;4.43;;
11328;SDS011;5719;42.714;23.732;2023-07-02T01:06:19;7.05;;;4.68;;
11328;SDS011;5719;42.714;23.732;2023-07-02T01:08:51;6.78;;;4.78;;
11328;SDS011;5719;42.714;23.732;2023-07-02T01:11:20;7.90;;;4.43;;
11328;SDS011;5719;42.714;23.732;2023-07-02T01:13:51;6.38;;;4.28;;
11328;SDS011;5719;42.714;23.732;2023-07-02T01:16:21;6.65;;;4.32;;
11328;SDS011;5719;42.714;23.732;2023-07-02T01:18:49;8.73;;;4.90;;
11328;SDS011;5719;42.714;23.732;2023-07-02T01:21:21;8.68;;;4.88;;
11328;SDS011;5719;42.714;23.732;2023-07-02T01:23:50;13.05;;;4.53;;
11328;SDS011;5719;42.714;23.732;2023-07-02T01:26:17;11.82;;;4.47;;
11328;SDS011;5719;42.714;23.732;2023-07-02T01:28:44;8.32;;;4.20;;
11328;SDS011;5719;42.714;23.732;2023-07-02T01:31:11;9.30;;;5.03;;
11328;SDS011;5719;42.714;23.732;2023-07-02T01:33:38;6.18;;;4.78;;
11328;SDS011;5719;42.714;23.732;2023-07-02T01:36:05;5.95;;;4.32;;
11328;SDS011;5719;42.714;23.732;2023-07-02T01:38:34;8.15;;;5.13;;
11328;SDS011;5719;42.714;23.732;2023-07-02T01:41:00;8.13;;;4.65;;
11328;SDS011;5719;42.714;23.732;2023-07-02T01:43:27;8.13;;;4.90;;
11328;SDS011;5719;42.714;23.732;2023-07-02T01:45:54;10.60;;;4.97;;
11328;SDS011;5719;42.714;23.732;2023-07-02T01:48:22;5.68;;;4.57;;
11328;SDS011;5719;42.714;23.732;2023-07-02T01:50:48;7.40;;;4.63;;
11328;SDS011;5719;42.714;23.732;2023-07-02T01:53:15;14.52;;;4.75;;
11328;SDS011;5719;42.714;23.732;2023-07-02T01:55:44;9.07;;;4.47;;
11328;SDS011;5719;42.714;23.732;2023-07-02T01:58:11;6.63;;;4.63;;
11328;SDS011;5719;42.714;23.732;2023-07-02T02:00:37;9.20;;;4.22;;
11328;SDS011;5719;42.714;23.732;2023-07-02T02:03:04;8.50;;;5.13;;
11328;SDS011;5719;42.714;23.732;2023-07-02T02:05:31;9.23;;;4.80;;
11328;SDS011;5719;42.714;23.732;2023-07-02T02:07:58;13.98;;;5.15;;
11328;SDS011;5719;42.714;23.732;2023-07-02T02:10:25;8.52;;;5.65;;
11328;SDS011;5719;42.714;23.732;2023-07-02T02:12:53;12.30;;;5.13;;
11328;SDS011;5719;42.714;23.732;2023-07-02T02:15:20;7.10;;;4.88;;
11328;SDS011;5719;42.714;23.732;2023-07-02T02:17:47;12.13;;;6.00;;
11328;SDS011;5719;42.714;23.732;2023-07-02T02:20:14;12.68;;;5.40;;
11328;SDS011;5719;42.714;23.732;2023-07-02T02:22:41;10.48;;;5.55;;
11328;SDS011;5719;42.714;23.732;2023-07-02T02:25:08;13.00;;;6.07;;
11328;SDS011;5719;42.714;23.732;2023-07-02T02:27:35;8.98;;;5.90;;
11328;SDS011;5719;42.714;23.732;2023-07-02T02:30:04;13.13;;;6.22;;
11328;SDS011;5719;42.714;23.732;2023-07-02T02:32:31;7.90;;;5.90;;
11328;SDS011;5719;42.714;23.732;2023-07-02T02:34:58;9.63;;;5.93;;
11328;SDS011;5719;42.714;23.732;2023-07-02T02:37:25;10.95;;;5.75;;
11328;SDS011;5719;42.714;23.732;2023-07-02T02:39:52;11.20;;;5.88;;
11328;SDS011;5719;42.714;23.732;2023-07-02T02:42:19;11.77;;;6.72;;
11328;SDS011;5719;42.714;23.732;2023-07-02T02:44:45;12.70;;;6.60;;
11328;SDS011;5719;42.714;23.732;2023-07-02T02:47:14;8.15;;;6.38;;
11328;SDS011;5719;42.714;23.732;2023-07-02T02:49:41;9.13;;;6.00;;
11328;SDS011;5719;42.714;23.732;2023-07-02T02:52:07;8.27;;;6.00;;
11328;SDS011;5719;42.714;23.732;2023-07-02T02:54:34;12.07;;;5.65;;
11328;SDS011;5719;42.714;23.732;2023-07-02T02:57:01;13.70;;;5.72;;
11328;SDS011;5719;42.714;23.732;2023-07-02T02:59:28;11.30;;;5.97;;
11328;SDS011;5719;42.714;23.732;2023-07-02T03:01:55;8.38;;;5.32;;
11328;SDS011;5719;42.714;23.732;2023-07-02T03:04:23;8.00;;;5.57;;
11328;SDS011;5719;42.714;23.732;2023-07-02T03:06:50;6.90;;;5.63;;
11328;SDS011;5719;42.714;23.732;2023-07-02T03:09:18;11.38;;;5.80;;
11328;SDS011;5719;42.714;23.732;2023-07-02T03:11:45;9.00;;;6.00;;
11328;SDS011;5719;42.714;23.732;2023-07-02T03:14:12;9.90;;;5.68;;
11328;SDS011;5719;42.714;23.732;2023-07-02T03:16:39;9.65;;;5.50;;
11328;SDS011;5719;42.714;23.732;2023-07-02T03:19:06;6.82;;;5.22;;
11328;SDS011;5719;42.714;23.732;2023-07-02T03:21:35;11.45;;;5.20;;
11328;SDS011;5719;42.714;23.732;2023-07-02T03:24:02;9.88;;;5.40;;
11328;SDS011;5719;42.714;23.732;2023-07-02T03:26:28;8.50;;;5.60;;
11328;SDS011;5719;42.714;23.732;2023-07-02T03:28:55;8.05;;;5.85;;
11328;SDS011;5719;42.714;23.732;2023-07-02T03:31:22;10.32;;;5.60;;
11328;SDS011;5719;42.714;23.732;2023-07-02T03:33:49;8.43;;;5.40;;
11328;SDS011;5719;42.714;23.732;2023-07-02T03:36:16;10.02;;;5.30;;
11328;SDS011;5719;42.714;23.732;2023-07-02T03:38:44;9.40;;;5.40;;
11328;SDS011;5719;42.714;23.732;2023-07-02T03:41:11;8.25;;;5.75;;
11328;SDS011;5719;42.714;23.732;2023-07-02T03:43:38;13.75;;;6.57;;
11328;SDS011;5719;42.714;23.732;2023-07-02T03:46:05;8.00;;;6.00;;
11328;SDS011;5719;42.714;23.732;2023-07-02T03:48:31;8.55;;;5.88;;
11328;SDS011;5719;42.714;23.732;2023-07-02T03:50:58;12.90;;;5.40;;
11328;SDS011;5719;42.714;23.732;2023-07-02T03:53:27;8.90;;;5.55;;
11328;SDS011;5719;42.714;23.732;2023-07-02T03:55:55;7.18;;;5.20;;
11328;SDS011;5719;42.714;23.732;2023-07-02T03:58:22;10.93;;;5.82;;
11328;SDS011;5719;42.714;23.732;2023-07-02T04:00:49;13.73;;;6.55;;
11328;SDS011;5719;42.714;23.732;2023-07-02T04:03:16;10.55;;;5.35;;
11328;SDS011;5719;42.714;23.732;2023-07-02T04:05:43;9.85;;;5.53;;
11328;SDS011;5719;42.714;23.732;2023-07-02T04:08:10;8.57;;;5.30;;
11328;SDS011;5719;42.714;23.732;2023-07-02T04:10:37;8.32;;;6.13;;
11328;SDS011;5719;42.714;23.732;2023-07-02T04:13:05;10.82;;;5.35;;
11328;SDS011;5719;42.714;23.732;2023-07-02T04:15:32;9.63;;;5.80;;
11328;SDS011;5719;42.714;23.732;2023-07-02T04:17:59;13.38;;;5.90;;
11328;SDS011;5719;42.714;23.732;2023-07-02T04:20:26;8.38;;;5.68;;
11328;SDS011;5719;42.714;23.732;2023-07-02T04:22:53;10.85;;;5.72;;
11328;SDS011;5719;42.714;23.732;2023-07-02T04:25:21;8.98;;;6.10;;
11328;SDS011;5719;42.714;23.732;2023-07-02T04:27:48;8.32;;;6.07;;
11328;SDS011;5719;42.714;23.732;2023-07-02T04:30:16;10.82;;;6.20;;
11328;SDS011;5719;42.714;23.732;2023-07-02T04:32:43;9.15;;;5.65;;
11328;SDS011;5719;42.714;23.732;2023-07-02T04:35:10;6.63;;;5.75;;
11328;SDS011;5719;42.714;23.732;2023-07-02T04:37:37;9.70;;;6.20;;
11328;SDS011;5719;42.714;23.732;2023-07-02T04:40:06;6.32;;;5.30;;
11328;SDS011;5719;42.714;23.732;2023-07-02T04:42:35;7.32;;;6.00;;
11328;SDS011;5719;42.714;23.732;2023-07-02T04:45:03;7.88;;;5.45;;
11328;SDS011;5719;42.714;23.732;2023-07-02T04:47:32;9.07;;;5.70;;
11328;SDS011;5719;42.714;23.732;2023-07-02T04:49:59;11.98;;;6.22;;
11328;SDS011;5719;42.714;23.732;2023-07-02T04:52:26;14.20;;;7.07;;
11328;SDS011;5719;42.714;23.732;2023-07-02T04:54:53;14.05;;;6.65;;
11328;SDS011;5719;42.714;23.732;2023-07-02T04:57:21;14.75;;;7.20;;
11328;SDS011;5719;42.714;23.732;2023-07-02T04:59:48;12.43;;;6.68;;
11328;SDS011;5719;42.714;23.732;2023-07-02T05:02:15;9.07;;;6.57;;
11328;SDS011;5719;42.714;23.732;2023-07-02T05:04:43;11.13;;;6.50;;
11328;SDS011;5719;42.714;23.732;2023-07-02T05:07:10;12.40;;;6.82;;
11328;SDS011;5719;42.714;23.732;2023-07-02T05:09:37;10.77;;;6.47;;
11328;SDS011;5719;42.714;23.732;2023-07-02T05:12:04;9.07;;;6.95;;
11328;SDS011;5719;42.714;23.732;2023-07-02T05:14:31;14.13;;;6.78;;
11328;SDS011;5719;42.714;23.732;2023-07-02T05:16:58;12.48;;;7.57;;
11328;SDS011;5719;42.714;23.732;2023-07-02T05:19:25;9.85;;;6.80;;
11328;SDS011;5719;42.714;23.732;2023-07-02T05:21:54;14.48;;;7.18;;
11328;SDS011;5719;42.714;23.732;2023-07-02T05:24:21;9.45;;;6.85;;
11328;SDS011;5719;42.714;23.732;2023-07-02T05:26:48;11.68;;;6.55;;
11328;SDS011;5719;42.714;23.732;2023-07-02T05:29:15;9.13;;;6.50;;
11328;SDS011;5719;42.714;23.732;2023-07-02T05:31:42;12.00;;;6.40;;
11328;SDS011;5719;42.714;23.732;2023-07-02T05:34:09;8.50;;;5.75;;
11328;SDS011;5719;42.714;23.732;2023-07-02T05:36:37;9.95;;;6.32;;
11328;SDS011;5719;42.714;23.732;2023-07-02T05:39:05;11.20;;;6.13;;
11328;SDS011;5719;42.714;23.732;2023-07-02T05:41:32;7.80;;;5.95;;
11328;SDS011;5719;42.714;23.732;2023-07-02T05:43:59;9.10;;;5.65;;
11328;SDS011;5719;42.714;23.732;2023-07-02T05:46:26;12.25;;;6.60;;
11328;SDS011;5719;42.714;23.732;2023-07-02T05:48:53;10.55;;;6.47;;
11328;SDS011;5719;42.714;23.732;2023-07-02T05:51:22;9.07;;;6.05;;
11328;SDS011;5719;42.714;23.732;2023-07-02T05:53:49;11.30;;;6.30;;
11328;SDS011;5719;42.714;23.732;2023-07-02T05:56:18;9.45;;;6.60;;
11328;SDS011;5719;42.714;23.732;2023-07-02T05:58:45;11.35;;;6.07;;
11328;SDS011;5719;42.714;23.732;2023-07-02T06:01:12;10.13;;;6.55;;
11328;SDS011;5719;42.714;23.732;2023-07-02T06:03:39;14.93;;;6.30;;
11328;SDS011;5719;42.714;23.732;2023-07-02T06:06:07;9.23;;;6.25;;
11328;SDS011;5719;42.714;23.732;2023-07-02T06:08:36;9.93;;;6.45;;
11328;SDS011;5719;42.714;23.732;2023-07-02T06:11:03;10.90;;;6.20;;
11328;SDS011;5719;42.714;23.732;2023-07-02T06:13:31;13.52;;;6.43;;
11328;SDS011;5719;42.714;23.732;2023-07-02T06:15:58;9.45;;;6.65;;
11328;SDS011;5719;42.714;23.732;2023-07-02T06:18:25;10.30;;;6.45;;
11328;SDS011;5719;42.714;23.732;2023-07-02T06:20:52;12.68;;;6.38;;
11328;SDS011;5719;42.714;23.732;2023-07-02T06:23:19;8.10;;;5.82;;
11328;SDS011;5719;42.714;23.732;2023-07-02T06:25:46;8.10;;;5.43;;
11328;SDS011;5719;42.714;23.732;2023-07-02T06:28:13;11.88;;;6.07;;
11328;SDS011;5719;42.714;23.732;2023-07-02T06:30:41;10.20;;;5.38;;
11328;SDS011;5719;42.714;23.732;2023-07-02T06:33:08;6.80;;;5.45;;
11328;SDS011;5719;42.714;23.732;2023-07-02T06:35:35;9.07;;;5.32;;
11328;SDS011;5719;42.714;23.732;2023-07-02T06:38:02;8.45;;;5.40;;
11328;SDS011;5719;42.714;23.732;2023-07-02T06:40:29;11.60;;;5.72;;
11328;SDS011;5719;42.714;23.732;2023-07-02T06:42:56;7.07;;;4.60;;
11328;SDS011;5719;42.714;23.732;2023-07-02T06:45:23;7.90;;;4.25;;
11328;SDS011;5719;42.714;23.732;2023-07-02T06:47:51;4.63;;;3.65;;
11328;SDS011;5719;42.714;23.732;2023-07-02T06:50:18;7.65;;;3.90;;
11328;SDS011;5719;42.714;23.732;2023-07-02T06:52:45;7.63;;;3.90;;
11328;SDS011;5719;42.714;23.732;2023-07-02T06:55:12;6.70;;;3.83;;
11328;SDS011;5719;42.714;23.732;2023-07-02T06:57:42;10.35;;;3.92;;
11328;SDS011;5719;42.714;23.732;2023-07-02T07:00:10;5.72;;;3.83;;
11328;SDS011;5719;42.714;23.732;2023-07-02T07:02:38;6.05;;;4.15;;
11328;SDS011;5719;42.714;23.732;2023-07-02T07:05:07;7.88;;;3.53;;
11328;SDS011;5719;42.714;23.732;2023-07-02T07:07:34;6.38;;;3.80;;
11328;SDS011;5719;42.714;23.732;2023-07-02T07:10:01;5.85;;;4.10;;
11328;SDS011;5719;42.714;23.732;2023-07-02T07:12:29;5.97;;;3.90;;
11328;SDS011;5719;42.714;23.732;2023-07-02T07:14:55;7.45;;;4.22;;
11328;SDS011;5719;42.714;23.732;2023-07-02T07:17:22;9.88;;;3.85;;
11328;SDS011;5719;42.714;23.732;2023-07-02T07:19:49;6.25;;;3.88;;
11328;SDS011;5719;42.714;23.732;2023-07-02T07:22:18;14.13;;;4.25;;
11328;SDS011;5719;42.714;23.732;2023-07-02T07:24:44;4.97;;;3.72;;
11328;SDS011;5719;42.714;23.732;2023-07-02T07:27:11;7.07;;;3.92;;
11328;SDS011;5719;42.714;23.732;2023-07-02T07:29:38;4.75;;;3.83;;
11328;SDS011;5719;42.714;23.732;2023-07-02T07:32:06;4.43;;;3.38;;
11328;SDS011;5719;42.714;23.732;2023-07-02T07:34:33;4.82;;;3.97;;
11328;SDS011;5719;42.714;23.732;2023-07-02T07:37:00;5.95;;;3.67;;
11328;SDS011;5719;42.714;23.732;2023-07-02T07:39:28;8.77;;;3.95;;
11328;SDS011;5719;42.714;23.732;2023-07-02T07:41:55;7.47;;;4.20;;
11328;SDS011;5719;42.714;23.732;2023-07-02T07:44:22;112.82;;;9.70;;
11328;SDS011;5719;42.714;23.732;2023-07-02T07:46:54;86.50;;;8.55;;
11328;SDS011;5719;42.714;23.732;2023-07-02T07:49:20;8.20;;;4.40;;
11328;SDS011;5719;42.714;23.732;2023-07-02T07:51:47;10.25;;;4.40;;
11328;SDS011;5719;42.714;23.732;2023-07-02T07:54:15;5.30;;;3.78;;
11328;SDS011;5719;42.714;23.732;2023-07-02T07:56:44;5.18;;;3.90;;
11328;SDS011;5719;42.714;23.732;2023-07-02T07:59:11;5.85;;;4.13;;
11328;SDS011;5719;42.714;23.732;2023-07-02T08:01:40;7.15;;;4.20;;
11328;SDS011;5719;42.714;23.732;2023-07-02T08:04:07;8.05;;;4.28;;
11328;SDS011;5719;42.714;23.732;2023-07-02T08:06:33;6.03;;;4.45;;
11328;SDS011;5719;42.714;23.732;2023-07-02T08:09:00;6.05;;;4.47;;
11328;SDS011;5719;42.714;23.732;2023-07-02T08:11:28;8.88;;;4.80;;
11328;SDS011;5719;42.714;23.732;2023-07-02T08:13:57;8.00;;;4.47;;
11328;SDS011;5719;42.714;23.732;2023-07-02T08:16:24;8.40;;;4.90;;
11328;SDS011;5719;42.714;23.732;2023-07-02T08:18:51;9.18;;;4.65;;
11328;SDS011;5719;42.714;23.732;2023-07-02T08:21:18;5.32;;;4.47;;
11328;SDS011;5719;42.714;23.732;2023-07-02T08:23:45;5.63;;;3.97;;
11328;SDS011;5719;42.714;23.732;2023-07-02T08:26:12;6.72;;;4.22;;
11328;SDS011;5719;42.714;23.732;2023-07-02T08:28:39;8.90;;;3.78;;
11328;SDS011;5719;42.714;23.732;2023-07-02T08:31:07;5.60;;;4.22;;
11328;SDS011;5719;42.714;23.732;2023-07-02T08:33:34;8.25;;;4.25;;
11328;SDS011;5719;42.714;23.732;2023-07-02T08:36:01;6.82;;;4.60;;
11328;SDS011;5719;42.714;23.732;2023-07-02T08:38:31;10.75;;;4.75;;
11328;SDS011;5719;42.714;23.732;2023-07-02T08:40:58;6.28;;;4.03;;
11328;SDS011;5719;42.714;23.732;2023-07-02T08:43:25;6.95;;;3.80;;
11328;SDS011;5719;42.714;23.732;2023-07-02T08:45:53;4.78;;;3.85;;
11328;SDS011;5719;42.714;23.732;2023-07-02T08:48:21;7.15;;;4.25;;
11328;SDS011;5719;42.714;23.732;2023-07-02T08:50:49;8.70;;;4.15;;
11328;SDS011;5719;42.714;23.732;2023-07-02T08:53:16;4.75;;;3.95;;
11328;SDS011;5719;42.714;23.732;2023-07-02T08:55:43;5.28;;;3.92;;
11328;SDS011;5719;42.714;23.732;2023-07-02T08:58:10;5.63;;;3.92;;
11328;SDS011;5719;42.714;23.732;2023-07-02T09:00:37;5.60;;;4.25;;
11328;SDS011;5719;42.714;23.732;2023-07-02T09:03:12;6.82;;;4.05;;
11328;SDS011;5719;42.714;23.732;2023-07-02T09:05:48;4.63;;;3.97;;
11328;SDS011;5719;42.714;23.732;2023-07-02T09:08:22;5.63;;;4.55;;
11328;SDS011;5719;42.714;23.732;2023-07-02T09:10:50;7.30;;;4.07;;
11328;SDS011;5719;42.714;23.732;2023-07-02T09:13:17;4.43;;;4.03;;
11328;SDS011;5719;42.714;23.732;2023-07-02T09:15:45;5.22;;;3.95;;
11328;SDS011;5719;42.714;23.732;2023-07-02T09:18:16;5.40;;;4.22;;
11328;SDS011;5719;42.714;23.732;2023-07-02T09:20:44;5.03;;;3.70;;
11328;SDS011;5719;42.714;23.732;2023-07-02T09:23:12;7.57;;;4.13;;
11328;SDS011;5719;42.714;23.732;2023-07-02T09:25:40;5.18;;;3.97;;
11328;SDS011;5719;42.714;23.732;2023-07-02T09:28:14;8.18;;;4.10;;
11328;SDS011;5719;42.714;23.732;2023-07-02T09:30:51;5.32;;;3.80;;
11328;SDS011;5719;42.714;23.732;2023-07-02T09:33:20;7.47;;;3.75;;
11328;SDS011;5719;42.714;23.732;2023-07-02T09:35:47;7.22;;;3.90;;
11328;SDS011;5719;42.714;23.732;2023-07-02T09:38:16;5.70;;;3.95;;
11328;SDS011;5719;42.714;23.732;2023-07-02T09:40:45;10.18;;;4.35;;
11328;SDS011;5719;42.714;23.732;2023-07-02T09:43:13;8.38;;;4.30;;
11328;SDS011;5719;42.714;23.732;2023-07-02T09:45:42;4.63;;;3.88;;
11328;SDS011;5719;42.714;23.732;2023-07-02T09:48:11;5.70;;;4.00;;
11328;SDS011;5719;42.714;23.732;2023-07-02T09:50:40;4.57;;;4.00;;
11328;SDS011;5719;42.714;23.732;2023-07-02T09:53:08;6.88;;;3.80;;
11328;SDS011;5719;42.714;23.732;2023-07-02T09:55:37;5.90;;;4.00;;
11328;SDS011;5719;42.714;23.732;2023-07-02T09:58:04;5.30;;;3.65;;
11328;SDS011;5719;42.714;23.732;2023-07-02T10:00:32;4.68;;;4.05;;
11328;SDS011;5719;42.714;23.732;2023-07-02T10:02:59;4.10;;;3.70;;
11328;SDS011;5719;42.714;23.732;2023-07-02T10:05:26;5.53;;;4.00;;
11328;SDS011;5719;42.714;23.732;2023-07-02T10:07:55;8.30;;;3.70;;
11328;SDS011;5719;42.714;23.732;2023-07-02T10:10:26;6.50;;;3.85;;
11328;SDS011;5719;42.714;23.732;2023-07-02T10:12:55;4.30;;;3.90;;
11328;SDS011;5719;42.714;23.732;2023-07-02T10:15:25;6.28;;;3.75;;
11328;SDS011;5719;42.714;23.732;2023-07-02T10:17:54;7.10;;;3.95;;
11328;SDS011;5719;42.714;23.732;2023-07-02T10:20:30;4.47;;;4.03;;
11328;SDS011;5719;42.714;23.732;2023-07-02T10:22:59;5.40;;;3.97;;
11328;SDS011;5719;42.714;23.732;2023-07-02T10:25:27;5.70;;;3.80;;
11328;SDS011;5719;42.714;23.732;2023-07-02T10:27:58;8.10;;;4.57;;
11328;SDS011;5719;42.714;23.732;2023-07-02T10:30:32;6.13;;;4.82;;
11328;SDS011;5719;42.714;23.732;2023-07-02T10:33:07;7.78;;;5.05;;
11328;SDS011;5719;42.714;23.732;2023-07-02T10:35:35;6.97;;;5.57;;
11328;SDS011;5719;42.714;23.732;2023-07-02T10:38:02;5.60;;;3.65;;
11328;SDS011;5719;42.714;23.732;2023-07-02T10:40:31;4.65;;;3.60;;
11328;SDS011;5719;42.714;23.732;2023-07-02T10:43:00;5.47;;;4.13;;
11328;SDS011;5719;42.714;23.732;2023-07-02T10:45:33;4.20;;;3.80;;
11328;SDS011;5719;42.714;23.732;2023-07-02T10:48:01;4.93;;;3.72;;
11328;SDS011;5719;42.714;23.732;2023-07-02T10:50:30;5.20;;;3.83;;
11328;SDS011;5719;42.714;23.732;2023-07-02T10:52:58;4.78;;;3.58;;
11328;SDS011;5719;42.714;23.732;2023-07-02T10:55:25;4.80;;;3.60;;
11328;SDS011;5719;42.714;23.732;2023-07-02T10:58:04;6.97;;;3.80;;
11328;SDS011;5719;42.714;23.732;2023-07-02T11:00:31;7.07;;;3.60;;
11328;SDS011;5719;42.714;23.732;2023-07-02T11:02:58;6.50;;;4.32;;
11328;SDS011;5719;42.714;23.732;2023-07-02T11:05:26;4.97;;;3.58;;
11328;SDS011;5719;42.714;23.732;2023-07-02T11:07:53;4.43;;;3.47;;
11328;SDS011;5719;42.714;23.732;2023-07-02T11:10:22;5.72;;;4.18;;
11328;SDS011;5719;42.714;23.732;2023-07-02T11:12:50;4.82;;;3.70;;
11328;SDS011;5719;42.714;23.732;2023-07-02T11:15:19;5.65;;;3.50;;
11328;SDS011;5719;42.714;23.732;2023-07-02T11:17:46;5.90;;;4.10;;
11328;SDS011;5719;42.714;23.732;2023-07-02T11:20:13;5.65;;;3.75;;
11328;SDS011;5719;42.714;23.732;2023-07-02T11:22:41;5.95;;;3.95;;
11328;SDS011;5719;42.714;23.732;2023-07-02T11:25:09;3.78;;;3.40;;
11328;SDS011;5719;42.714;23.732;2023-07-02T11:27:37;4.65;;;3.72;;
11328;SDS011;5719;42.714;23.732;2023-07-02T11:30:06;6.47;;;4.20;;
11328;SDS011;5719;42.714;23.732;2023-07-02T11:32:45;6.95;;;4.03;;
11328;SDS011;5719;42.714;23.732;2023-07-02T11:35:14;5.53;;;3.88;;
11328;SDS011;5719;42.714;23.732;2023-07-02T11:37:42;5.20;;;4.03;;
11328;SDS011;5719;42.714;23.732;2023-07-02T11:40:10;6.20;;;3.95;;
11328;SDS011;5719;42.714;23.732;2023-07-02T11:42:38;7.30;;;4.10;;
11328;SDS011;5719;42.714;23.732;2023-07-02T11:45:05;6.18;;;4.13;;
11328;SDS011;5719;42.714;23.732;2023-07-02T11:47:33;6.30;;;4.25;;
11328;SDS011;5719;42.714;23.732;2023-07-02T11:50:01;6.82;;;3.83;;
11328;SDS011;5719;42.714;23.732;2023-07-02T11:52:28;6.88;;;3.80;;
11328;SDS011;5719;42.714;23.732;2023-07-02T11:54:55;4.45;;;3.67;;
11328;SDS011;5719;42.714;23.732;2023-07-02T11:57:22;6.95;;;4.07;;
11328;SDS011;5719;42.714;23.732;2023-07-02T11:59:49;6.35;;;4.07;;
11328;SDS011;5719;42.714;23.732;2023-07-02T12:02:17;5.75;;;4.30;;
11328;SDS011;5719;42.714;23.732;2023-07-02T12:04:44;7.35;;;4.70;;
11328;SDS011;5719;42.714;23.732;2023-07-02T12:07:13;8.27;;;4.32;;
11328;SDS011;5719;42.714;23.732;2023-07-02T12:09:40;7.03;;;4.30;;
11328;SDS011;5719;42.714;23.732;2023-07-02T12:12:08;5.47;;;4.22;;
11328;SDS011;5719;42.714;23.732;2023-07-02T12:14:35;5.70;;;4.13;;
11328;SDS011;5719;42.714;23.732;2023-07-02T12:17:02;6.00;;;4.43;;
11328;SDS011;5719;42.714;23.732;2023-07-02T12:19:30;5.95;;;4.47;;
11328;SDS011;5719;42.714;23.732;2023-07-02T12:21:57;8.05;;;4.55;;
11328;SDS011;5719;42.714;23.732;2023-07-02T12:24:25;7.60;;;5.18;;
11328;SDS011;5719;42.714;23.732;2023-07-02T12:26:52;6.05;;;4.55;;
11328;SDS011;5719;42.714;23.732;2023-07-02T12:29:19;7.60;;;4.32;;
11328;SDS011;5719;42.714;23.732;2023-07-02T12:31:46;6.40;;;4.45;;
11328;SDS011;5719;42.714;23.732;2023-07-02T12:34:13;9.13;;;5.18;;
11328;SDS011;5719;42.714;23.732;2023-07-02T12:36:40;5.50;;;4.70;;
11328;SDS011;5719;42.714;23.732;2023-07-02T12:39:07;7.30;;;5.45;;
11328;SDS011;5719;42.714;23.732;2023-07-02T12:41:36;6.50;;;4.82;;
11328;SDS011;5719;42.714;23.732;2023-07-02T12:44:03;15.70;;;5.13;;
11328;SDS011;5719;42.714;23.732;2023-07-02T12:46:30;9.60;;;5.30;;
11328;SDS011;5719;42.714;23.732;2023-07-02T12:48:57;8.45;;;5.25;;
11328;SDS011;5719;42.714;23.732;2023-07-02T12:51:24;8.40;;;5.32;;
11328;SDS011;5719;42.714;23.732;2023-07-02T12:53:51;9.57;;;5.53;;
11328;SDS011;5719;42.714;23.732;2023-07-02T12:56:18;7.85;;;5.20;;
11328;SDS011;5719;42.714;23.732;2023-07-02T12:58:46;8.48;;;5.28;;
11328;SDS011;5719;42.714;23.732;2023-07-02T13:01:16;10.73;;;5.78;;
11328;SDS011;5719;42.714;23.732;2023-07-02T13:03:46;8.27;;;5.60;;
11328;SDS011;5719;42.714;23.732;2023-07-02T13:06:14;10.48;;;5.88;;
11328;SDS011;5719;42.714;23.732;2023-07-02T13:08:41;11.57;;;6.30;;
11328;SDS011;5719;42.714;23.732;2023-07-02T13:11:07;9.15;;;5.90;;
11328;SDS011;5719;42.714;23.732;2023-07-02T13:13:35;9.70;;;6.28;;
11328;SDS011;5719;42.714;23.732;2023-07-02T13:16:04;8.15;;;5.85;;
11328;SDS011;5719;42.714;23.732;2023-07-02T13:18:31;7.28;;;5.80;;
11328;SDS011;5719;42.714;23.732;2023-07-02T13:20:58;7.78;;;5.70;;
11328;SDS011;5719;42.714;23.732;2023-07-02T13:23:26;9.13;;;6.47;;
11328;SDS011;5719;42.714;23.732;2023-07-02T13:25:53;9.32;;;5.82;;
11328;SDS011;5719;42.714;23.732;2023-07-02T13:28:20;8.02;;;6.05;;
11328;SDS011;5719;42.714;23.732;2023-07-02T13:30:48;8.27;;;5.95;;
11328;SDS011;5719;42.714;23.732;2023-07-02T13:33:17;9.68;;;5.97;;
11328;SDS011;5719;42.714;23.732;2023-07-02T13:35:44;9.02;;;5.72;;
11328;SDS011;5719;42.714;23.732;2023-07-02T13:38:12;9.07;;;5.30;;
11328;SDS011;5719;42.714;23.732;2023-07-02T13:40:39;7.93;;;5.38;;
11328;SDS011;5719;42.714;23.732;2023-07-02T13:43:06;7.60;;;5.25;;
11328;SDS011;5719;42.714;23.732;2023-07-02T13:45:34;11.55;;;5.50;;
11328;SDS011;5719;42.714;23.732;2023-07-02T13:48:01;18.27;;;5.50;;
11328;SDS011;5719;42.714;23.732;2023-07-02T13:50:31;8.98;;;5.60;;
11328;SDS011;5719;42.714;23.732;2023-07-02T13:52:58;6.75;;;5.40;;
11328;SDS011;5719;42.714;23.732;2023-07-02T13:55:25;9.70;;;5.38;;
11328;SDS011;5719;42.714;23.732;2023-07-02T13:57:53;10.88;;;5.85;;
11328;SDS011;5719;42.714;23.732;2023-07-02T14:00:22;7.28;;;5.60;;
11328;SDS011;5719;42.714;23.732;2023-07-02T14:02:49;10.40;;;5.93;;
11328;SDS011;5719;42.714;23.732;2023-07-02T14:05:17;10.93;;;6.00;;
11328;SDS011;5719;42.714;23.732;2023-07-02T14:07:45;9.98;;;5.70;;
11328;SDS011;5719;42.714;23.732;2023-07-02T14:10:12;12.85;;;6.22;;
11328;SDS011;5719;42.714;23.732;2023-07-02T14:12:40;12.73;;;6.03;;
11328;SDS011;5719;42.714;23.732;2023-07-02T14:15:08;7.93;;;5.80;;
11328;SDS011;5719;42.714;23.732;2023-07-02T14:17:37;11.68;;;6.03;;
11328;SDS011;5719;42.714;23.732;2023-07-02T14:20:05;8.68;;;5.82;;
11328;SDS011;5719;42.714;23.732;2023-07-02T14:22:33;7.07;;;5.78;;
11328;SDS011;5719;42.714;23.732;2023-07-02T14:25:00;6.57;;;5.72;;
11328;SDS011;5719;42.714;23.732;2023-07-02T14:27:28;7.75;;;5.97;;
11328;SDS011;5719;42.714;23.732;2023-07-02T14:29:55;7.60;;;5.88;;
11328;SDS011;5719;42.714;23.732;2023-07-02T14:32:22;9.70;;;5.85;;
11328;SDS011;5719;42.714;23.732;2023-07-02T14:34:51;10.30;;;5.53;;
11328;SDS011;5719;42.714;23.732;2023-07-02T14:37:18;8.73;;;6.03;;
11328;SDS011;5719;42.714;23.732;2023-07-02T14:39:45;9.70;;;5.97;;
11328;SDS011;5719;42.714;23.732;2023-07-02T14:42:12;6.80;;;4.93;;
11328;SDS011;5719;42.714;23.732;2023-07-02T14:44:39;9.02;;;5.30;;
11328;SDS011;5719;42.714;23.732;2023-07-02T14:47:06;12.38;;;5.85;;
11328;SDS011;5719;42.714;23.732;2023-07-02T14:49:33;9.55;;;5.82;;